sensor_id;sensor_type;location;lat;lon;timestamp;pressure;altitude;pressure_sealevel;temperature;humidity
77240;BME280;66258;53.170;-2.240;2023-03-19T00:01:50;99788.25;;;15.02;nan
77240;BME280;66258;53.170;-2.240;2023-03-19T00:04:16;99796.19;;;14.84;nan
77240;BME280;66258;53.170;-2.240;2023-03-19T00:06:43;99797.69;;;14.93;nan
77240;BME280;66258;53.170;-2.240;2023-03-19T00:09:10;99805.69;;;15.15;nan
77240;BME280;66258;53.170;-2.240;2023-03-19T00:11:37;99800.19;;;14.88;nan
77240;BME280;66258;53.170;-2.240;2023-03-19T00:14:05;99803.94;;;14.74;nan
77240;BME280;66258;53.170;-2.240;2023-03-19T00:16:33;99815.84;;;14.60;nan
77240;BME280;66258;53.170;-2.240;2023-03-19T00:19:00;99813.41;;;14.37;nan
77240;BME280;66258;53.170;-2.240;2023-03-19T00:21:27;99825.03;;;14.59;nan
77240;BME280;66258;53.170;-2.240;2023-03-19T00:23:56;99825.69;;;14.61;nan
77240;BME280;66258;53.170;-2.240;2023-03-19T00:26:22;99819.59;;;14.59;nan
77240;BME280;66258;53.170;-2.240;2023-03-19T00:28:49;99820.47;;;14.66;nan
77240;BME280;66258;53.170;-2.240;2023-03-19T00:31:17;99822.69;;;14.42;nan
77240;BME280;66258;53.170;-2.240;2023-03-19T00:33:44;99825.16;;;14.37;nan
77240;BME280;66258;53.170;-2.240;2023-03-19T00:36:11;99826.63;;;14.40;nan
77240;BME280;66258;53.170;-2.240;2023-03-19T00:38:38;99823.22;;;14.25;nan
77240;BME280;66258;53.170;-2.240;2023-03-19T00:41:05;99815.66;;;14.20;nan
77240;BME280;66258;53.170;-2.240;2023-03-19T00:43:32;99815.75;;;13.99;nan
77240;BME280;66258;53.170;-2.240;2023-03-19T00:45:59;99824.84;;;14.13;nan
77240;BME280;66258;53.170;-2.240;2023-03-19T00:48:28;99833.88;;;14.20;nan
77240;BME280;66258;53.170;-2.240;2023-03-19T00:50:55;99836.16;;;14.16;nan
77240;BME280;66258;53.170;-2.240;2023-03-19T00:53:27;99832.78;;;14.14;nan
77240;BME280;66258;53.170;-2.240;2023-03-19T00:55:53;99827.81;;;14.24;nan
77240;BME280;66258;53.170;-2.240;2023-03-19T00:58:20;99834.78;;;14.33;nan
77240;BME280;66258;53.170;-2.240;2023-03-19T01:00:47;99833.03;;;14.19;nan
77240;BME280;66258;53.170;-2.240;2023-03-19T01:03:13;99833.22;;;14.11;nan
77240;BME280;66258;53.170;-2.240;2023-03-19T01:05:41;99833.16;;;14.04;nan
77240;BME280;66258;53.170;-2.240;2023-03-19T01:08:08;99844.50;;;14.08;nan
77240;BME280;66258;53.170;-2.240;2023-03-19T01:10:35;99844.69;;;14.06;nan
77240;BME280;66258;53.170;-2.240;2023-03-19T01:13:01;99852.41;;;14.03;nan
77240;BME280;66258;53.170;-2.240;2023-03-19T01:15:28;99848.00;;;14.02;nan
77240;BME280;66258;53.170;-2.240;2023-03-19T01:17:55;99849.09;;;14.07;nan
77240;BME280;66258;53.170;-2.240;2023-03-19T01:20:21;99854.63;;;13.86;nan
77240;BME280;66258;53.170;-2.240;2023-03-19T01:22:49;99851.56;;;14.02;nan
77240;BME280;66258;53.170;-2.240;2023-03-19T01:25:17;99859.41;;;14.19;nan
77240;BME280;66258;53.170;-2.240;2023-03-19T01:27:43;99858.34;;;14.13;nan
77240;BME280;66258;53.170;-2.240;2023-03-19T01:30:11;99864.66;;;14.20;nan
77240;BME280;66258;53.170;-2.240;2023-03-19T01:32:38;99875.63;;;14.33;nan
77240;BME280;66258;53.170;-2.240;2023-03-19T01:35:06;99873.44;;;14.50;nan
77240;BME280;66258;53.170;-2.240;2023-03-19T01:37:33;99879.53;;;14.52;nan
77240;BME280;66258;53.170;-2.240;2023-03-19T01:40:01;99870.56;;;14.65;nan
77240;BME280;66258;53.170;-2.240;2023-03-19T01:42:28;99879.59;;;14.78;nan
77240;BME280;66258;53.170;-2.240;2023-03-19T01:44:55;99873.75;;;14.75;nan
77240;BME280;66258;53.170;-2.240;2023-03-19T01:47:28;99867.50;;;14.88;nan
77240;BME280;66258;53.170;-2.240;2023-03-19T01:49:57;99877.09;;;14.77;nan
77240;BME280;66258;53.170;-2.240;2023-03-19T01:52:28;99875.00;;;14.72;nan
77240;BME280;66258;53.170;-2.240;2023-03-19T01:54:56;99867.59;;;14.60;nan
77240;BME280;66258;53.170;-2.240;2023-03-19T01:57:28;99874.53;;;14.62;nan
77240;BME280;66258;53.170;-2.240;2023-03-19T01:59:57;99874.03;;;14.46;nan
77240;BME280;66258;53.170;-2.240;2023-03-19T02:02:27;99870.56;;;14.65;nan
77240;BME280;66258;53.170;-2.240;2023-03-19T02:04:57;99869.88;;;14.56;nan
77240;BME280;66258;53.170;-2.240;2023-03-19T02:07:26;99874.97;;;14.66;nan
77240;BME280;66258;53.170;-2.240;2023-03-19T02:09:54;99877.00;;;14.51;nan
77240;BME280;66258;53.170;-2.240;2023-03-19T02:12:20;99881.66;;;14.63;nan
77240;BME280;66258;53.170;-2.240;2023-03-19T02:14:49;99876.81;;;14.59;nan
77240;BME280;66258;53.170;-2.240;2023-03-19T02:17:15;99878.75;;;14.71;nan
77240;BME280;66258;53.170;-2.240;2023-03-19T02:19:47;99870.19;;;14.33;nan
77240;BME280;66258;53.170;-2.240;2023-03-19T02:22:17;99871.84;;;14.69;nan
77240;BME280;66258;53.170;-2.240;2023-03-19T02:24:50;99873.72;;;14.68;nan
77240;BME280;66258;53.170;-2.240;2023-03-19T02:27:20;99877.22;;;14.56;nan
77240;BME280;66258;53.170;-2.240;2023-03-19T02:29:47;99874.53;;;14.62;nan
77240;BME280;66258;53.170;-2.240;2023-03-19T02:32:15;99881.03;;;14.68;nan
77240;BME280;66258;53.170;-2.240;2023-03-19T02:34:42;99885.06;;;14.78;nan
77240;BME280;66258;53.170;-2.240;2023-03-19T02:37:13;99881.97;;;15.01;nan
77240;BME280;66258;53.170;-2.240;2023-03-19T02:39:48;99884.19;;;14.65;nan
77240;BME280;66258;53.170;-2.240;2023-03-19T02:42:17;99892.03;;;14.94;nan
77240;BME280;66258;53.170;-2.240;2023-03-19T02:44:46;99889.47;;;14.79;nan
77240;BME280;66258;53.170;-2.240;2023-03-19T02:47:13;99892.25;;;14.99;nan
77240;BME280;66258;53.170;-2.240;2023-03-19T02:49:40;99898.75;;;14.92;nan
77240;BME280;66258;53.170;-2.240;2023-03-19T02:52:07;99892.47;;;15.04;nan
77240;BME280;66258;53.170;-2.240;2023-03-19T02:54:34;99891.75;;;14.76;nan
77240;BME280;66258;53.170;-2.240;2023-03-19T02:57:01;99899.78;;;14.97;nan
77240;BME280;66258;53.170;-2.240;2023-03-19T02:59:28;99903.19;;;15.06;nan
77240;BME280;66258;53.170;-2.240;2023-03-19T03:01:56;99901.03;;;14.88;nan
77240;BME280;66258;53.170;-2.240;2023-03-19T03:04:23;99911.66;;;14.76;nan
77240;BME280;66258;53.170;-2.240;2023-03-19T03:06:50;99911.91;;;14.82;nan
77240;BME280;66258;53.170;-2.240;2023-03-19T03:09:16;99911.91;;;14.75;nan
77240;BME280;66258;53.170;-2.240;2023-03-19T03:11:43;99913.34;;;14.71;nan
77240;BME280;66258;53.170;-2.240;2023-03-19T03:14:10;99916.06;;;14.77;nan
77240;BME280;66258;53.170;-2.240;2023-03-19T03:16:37;99912.28;;;14.31;nan
77240;BME280;66258;53.170;-2.240;2023-03-19T03:19:05;99926.53;;;14.67;nan
77240;BME280;66258;53.170;-2.240;2023-03-19T03:21:32;99923.50;;;14.56;nan
77240;BME280;66258;53.170;-2.240;2023-03-19T03:24:01;99919.31;;;13.91;nan
77240;BME280;66258;53.170;-2.240;2023-03-19T03:26:27;99935.69;;;14.25;nan
77240;BME280;66258;53.170;-2.240;2023-03-19T03:28:54;99939.44;;;14.52;nan
77240;BME280;66258;53.170;-2.240;2023-03-19T03:31:21;99938.03;;;14.63;nan
77240;BME280;66258;53.170;-2.240;2023-03-19T03:33:48;99940.97;;;14.68;nan
77240;BME280;66258;53.170;-2.240;2023-03-19T03:36:16;99941.41;;;14.37;nan
77240;BME280;66258;53.170;-2.240;2023-03-19T03:38:43;99939.34;;;14.80;nan
77240;BME280;66258;53.170;-2.240;2023-03-19T03:41:10;99939.56;;;14.78;nan
77240;BME280;66258;53.170;-2.240;2023-03-19T03:43:37;99944.34;;;14.70;nan
77240;BME280;66258;53.170;-2.240;2023-03-19T03:46:04;99944.09;;;14.65;nan
77240;BME280;66258;53.170;-2.240;2023-03-19T03:48:30;99945.44;;;14.82;nan
77240;BME280;66258;53.170;-2.240;2023-03-19T03:50:57;99946.13;;;14.91;nan
77240;BME280;66258;53.170;-2.240;2023-03-19T03:53:25;99951.09;;;14.74;nan
77240;BME280;66258;53.170;-2.240;2023-03-19T03:55:52;99956.38;;;14.48;nan
77240;BME280;66258;53.170;-2.240;2023-03-19T03:58:19;99964.06;;;14.72;nan
77240;BME280;66258;53.170;-2.240;2023-03-19T04:00:45;99962.38;;;14.71;nan
77240;BME280;66258;53.170;-2.240;2023-03-19T04:03:12;99958.06;;;14.49;nan
77240;BME280;66258;53.170;-2.240;2023-03-19T04:05:39;99966.53;;;14.67;nan
77240;BME280;66258;53.170;-2.240;2023-03-19T04:08:06;99969.81;;;14.90;nan
77240;BME280;66258;53.170;-2.240;2023-03-19T04:10:34;99961.66;;;15.03;nan
77240;BME280;66258;53.170;-2.240;2023-03-19T04:13:01;99969.97;;;14.82;nan
77240;BME280;66258;53.170;-2.240;2023-03-19T04:15:28;99973.78;;;14.88;nan
77240;BME280;66258;53.170;-2.240;2023-03-19T04:17:54;99967.16;;;14.62;nan
77240;BME280;66258;53.170;-2.240;2023-03-19T04:20:21;99969.66;;;14.64;nan
77240;BME280;66258;53.170;-2.240;2023-03-19T04:22:48;99965.84;;;14.52;nan
77240;BME280;66258;53.170;-2.240;2023-03-19T04:25:15;99961.63;;;14.49;nan
77240;BME280;66258;53.170;-2.240;2023-03-19T04:27:43;99963.81;;;14.39;nan
77240;BME280;66258;53.170;-2.240;2023-03-19T04:30:11;99965.69;;;14.32;nan
77240;BME280;66258;53.170;-2.240;2023-03-19T04:32:39;99967.69;;;13.95;nan
77240;BME280;66258;53.170;-2.240;2023-03-19T04:35:07;99975.44;;;14.20;nan
77240;BME280;66258;53.170;-2.240;2023-03-19T04:37:33;99980.19;;;14.11;nan
77240;BME280;66258;53.170;-2.240;2023-03-19T04:40:00;99985.41;;;13.85;nan
77240;BME280;66258;53.170;-2.240;2023-03-19T04:42:27;99986.06;;;14.15;nan
77240;BME280;66258;53.170;-2.240;2023-03-19T04:44:55;99983.13;;;14.16;nan
77240;BME280;66258;53.170;-2.240;2023-03-19T04:47:21;99982.06;;;14.10;nan
77240;BME280;66258;53.170;-2.240;2023-03-19T04:49:48;99997.19;;;14.13;nan
77240;BME280;66258;53.170;-2.240;2023-03-19T04:52:15;99999.25;;;14.11;nan
77240;BME280;66258;53.170;-2.240;2023-03-19T04:54:42;99999.06;;;14.13;nan
77240;BME280;66258;53.170;-2.240;2023-03-19T04:57:09;99998.22;;;14.12;nan
77240;BME280;66258;53.170;-2.240;2023-03-19T04:59:35;99999.63;;;14.36;nan
77240;BME280;66258;53.170;-2.240;2023-03-19T05:02:04;100007.03;;;14.42;nan
77240;BME280;66258;53.170;-2.240;2023-03-19T05:04:31;100006.69;;;14.52;nan
77240;BME280;66258;53.170;-2.240;2023-03-19T05:06:57;100008.53;;;14.23;nan
77240;BME280;66258;53.170;-2.240;2023-03-19T05:09:24;100009.44;;;14.58;nan
77240;BME280;66258;53.170;-2.240;2023-03-19T05:11:51;100011.69;;;14.83;nan
77240;BME280;66258;53.170;-2.240;2023-03-19T05:14:17;100004.03;;;14.65;nan
77240;BME280;66258;53.170;-2.240;2023-03-19T05:16:44;100012.06;;;14.73;nan
77240;BME280;66258;53.170;-2.240;2023-03-19T05:19:12;100017.63;;;14.58;nan
77240;BME280;66258;53.170;-2.240;2023-03-19T05:21:39;100017.66;;;14.65;nan
77240;BME280;66258;53.170;-2.240;2023-03-19T05:24:07;100023.16;;;14.71;nan
77240;BME280;66258;53.170;-2.240;2023-03-19T05:26:33;100024.03;;;14.78;nan
77240;BME280;66258;53.170;-2.240;2023-03-19T05:29:00;100022.06;;;14.66;nan
77240;BME280;66258;53.170;-2.240;2023-03-19T05:31:27;100017.19;;;14.55;nan
77240;BME280;66258;53.170;-2.240;2023-03-19T05:33:53;100025.97;;;14.29;nan
77240;BME280;66258;53.170;-2.240;2023-03-19T05:36:22;100028.84;;;14.21;nan
77240;BME280;66258;53.170;-2.240;2023-03-19T05:38:48;100030.19;;;14.31;nan
77240;BME280;66258;53.170;-2.240;2023-03-19T05:41:15;100032.47;;;14.56;nan
77240;BME280;66258;53.170;-2.240;2023-03-19T05:43:41;100034.06;;;14.71;nan
77240;BME280;66258;53.170;-2.240;2023-03-19T05:46:08;100037.59;;;14.65;nan
77240;BME280;66258;53.170;-2.240;2023-03-19T05:48:35;100044.97;;;14.43;nan
77240;BME280;66258;53.170;-2.240;2023-03-19T05:51:02;100044.84;;;14.52;nan
77240;BME280;66258;53.170;-2.240;2023-03-19T05:53:32;100051.97;;;14.87;nan
77240;BME280;66258;53.170;-2.240;2023-03-19T05:55:59;100042.75;;;14.88;nan
77240;BME280;66258;53.170;-2.240;2023-03-19T05:58:25;100050.47;;;14.85;nan
77240;BME280;66258;53.170;-2.240;2023-03-19T06:00:53;100055.28;;;14.83;nan
77240;BME280;66258;53.170;-2.240;2023-03-19T06:03:20;100053.59;;;14.75;nan
77240;BME280;66258;53.170;-2.240;2023-03-19T06:05:47;100055.94;;;14.57;nan
77240;BME280;66258;53.170;-2.240;2023-03-19T06:08:14;100067.34;;;14.67;nan
77240;BME280;66258;53.170;-2.240;2023-03-19T06:10:42;100063.13;;;14.64;nan
77240;BME280;66258;53.170;-2.240;2023-03-19T06:13:09;100071.81;;;14.74;nan
77240;BME280;66258;53.170;-2.240;2023-03-19T06:15:36;100077.94;;;14.83;nan
77240;BME280;66258;53.170;-2.240;2023-03-19T06:18:03;100072.28;;;14.85;nan
77240;BME280;66258;53.170;-2.240;2023-03-19T06:20:30;100072.34;;;14.63;nan
77240;BME280;66258;53.170;-2.240;2023-03-19T06:22:56;100079.75;;;14.76;nan
77240;BME280;66258;53.170;-2.240;2023-03-19T06:25:23;100082.75;;;14.81;nan
77240;BME280;66258;53.170;-2.240;2023-03-19T06:27:51;100084.63;;;14.81;nan
77240;BME280;66258;53.170;-2.240;2023-03-19T06:30:18;100083.31;;;14.70;nan
77240;BME280;66258;53.170;-2.240;2023-03-19T06:32:44;100085.78;;;14.65;nan
77240;BME280;66258;53.170;-2.240;2023-03-19T06:35:11;100089.94;;;14.89;nan
77240;BME280;66258;53.170;-2.240;2023-03-19T06:37:38;100088.50;;;14.65;nan
77240;BME280;66258;53.170;-2.240;2023-03-19T06:40:05;100093.31;;;14.63;nan
77240;BME280;66258;53.170;-2.240;2023-03-19T06:42:32;100093.81;;;14.73;nan
77240;BME280;66258;53.170;-2.240;2023-03-19T06:45:00;100096.22;;;14.61;nan
77240;BME280;66258;53.170;-2.240;2023-03-19T06:47:27;100111.66;;;14.75;nan
77240;BME280;66258;53.170;-2.240;2023-03-19T06:49:53;100106.94;;;14.97;nan
77240;BME280;66258;53.170;-2.240;2023-03-19T06:52:20;100115.81;;;15.06;nan
77240;BME280;66258;53.170;-2.240;2023-03-19T06:54:47;100123.81;;;15.07;nan
77240;BME280;66258;53.170;-2.240;2023-03-19T06:57:13;100120.31;;;14.86;nan
77240;BME280;66258;53.170;-2.240;2023-03-19T06:59:40;100123.75;;;15.01;nan
77240;BME280;66258;53.170;-2.240;2023-03-19T07:02:10;100121.97;;;15.15;nan
77240;BME280;66258;53.170;-2.240;2023-03-19T07:04:37;100116.78;;;15.26;nan
77240;BME280;66258;53.170;-2.240;2023-03-19T07:07:04;100123.56;;;15.37;nan
77240;BME280;66258;53.170;-2.240;2023-03-19T07:09:30;100126.28;;;15.37;nan
77240;BME280;66258;53.170;-2.240;2023-03-19T07:11:57;100125.50;;;15.08;nan
77240;BME280;66258;53.170;-2.240;2023-03-19T07:14:24;100121.97;;;15.21;nan
77240;BME280;66258;53.170;-2.240;2023-03-19T07:16:51;100125.09;;;15.11;nan
77240;BME280;66258;53.170;-2.240;2023-03-19T07:19:19;100137.75;;;15.26;nan
77240;BME280;66258;53.170;-2.240;2023-03-19T07:21:46;100131.94;;;15.42;nan
77240;BME280;66258;53.170;-2.240;2023-03-19T07:24:12;100136.41;;;15.50;nan
77240;BME280;66258;53.170;-2.240;2023-03-19T07:26:39;100143.47;;;15.72;nan
77240;BME280;66258;53.170;-2.240;2023-03-19T07:29:06;100141.34;;;15.67;nan
77240;BME280;66258;53.170;-2.240;2023-03-19T07:31:33;100163.22;;;15.80;nan
77240;BME280;66258;53.170;-2.240;2023-03-19T07:34:00;100160.69;;;15.72;nan
77240;BME280;66258;53.170;-2.240;2023-03-19T07:36:28;100160.66;;;15.66;nan
77240;BME280;66258;53.170;-2.240;2023-03-19T07:38:55;100163.56;;;15.58;nan
77240;BME280;66258;53.170;-2.240;2023-03-19T07:41:22;100168.47;;;15.82;nan
77240;BME280;66258;53.170;-2.240;2023-03-19T07:43:48;100168.66;;;15.74;nan
77240;BME280;66258;53.170;-2.240;2023-03-19T07:46:15;100173.34;;;15.93;nan
77240;BME280;66258;53.170;-2.240;2023-03-19T07:48:42;100164.50;;;15.85;nan
77240;BME280;66258;53.170;-2.240;2023-03-19T07:51:08;100168.50;;;15.89;nan
77240;BME280;66258;53.170;-2.240;2023-03-19T07:53:36;100178.38;;;15.90;nan
77240;BME280;66258;53.170;-2.240;2023-03-19T07:56:04;100188.25;;;15.91;nan
77240;BME280;66258;53.170;-2.240;2023-03-19T07:58:31;100188.41;;;15.82;nan
77240;BME280;66258;53.170;-2.240;2023-03-19T08:00:57;100188.25;;;15.91;nan
77240;BME280;66258;53.170;-2.240;2023-03-19T08:03:24;100188.78;;;15.66;nan
77240;BME280;66258;53.170;-2.240;2023-03-19T08:05:50;100193.81;;;15.69;nan
77240;BME280;66258;53.170;-2.240;2023-03-19T08:08:17;100200.91;;;15.98;nan
77240;BME280;66258;53.170;-2.240;2023-03-19T08:10:45;100207.44;;;16.10;nan
77240;BME280;66258;53.170;-2.240;2023-03-19T08:13:12;100203.63;;;16.05;nan
77240;BME280;66258;53.170;-2.240;2023-03-19T08:15:38;100208.25;;;16.04;nan
77240;BME280;66258;53.170;-2.240;2023-03-19T08:18:05;100218.59;;;16.22;nan
77240;BME280;66258;53.170;-2.240;2023-03-19T08:20:32;100217.53;;;16.23;nan
77240;BME280;66258;53.170;-2.240;2023-03-19T08:22:59;100226.19;;;16.33;nan
77240;BME280;66258;53.170;-2.240;2023-03-19T08:25:26;100219.56;;;15.95;nan
77240;BME280;66258;53.170;-2.240;2023-03-19T08:27:54;100228.22;;;16.11;nan
77240;BME280;66258;53.170;-2.240;2023-03-19T08:30:21;100229.38;;;16.37;nan
77240;BME280;66258;53.170;-2.240;2023-03-19T08:32:48;100235.44;;;16.32;nan
77240;BME280;66258;53.170;-2.240;2023-03-19T08:35:16;100239.25;;;16.44;nan
77240;BME280;66258;53.170;-2.240;2023-03-19T08:37:42;100240.28;;;16.30;nan
77240;BME280;66258;53.170;-2.240;2023-03-19T08:40:10;100243.59;;;16.26;nan
77240;BME280;66258;53.170;-2.240;2023-03-19T08:42:37;100260.72;;;16.54;nan
77240;BME280;66258;53.170;-2.240;2023-03-19T08:45:07;100257.56;;;16.57;nan
77240;BME280;66258;53.170;-2.240;2023-03-19T08:47:33;100252.94;;;16.51;nan
77240;BME280;66258;53.170;-2.240;2023-03-19T08:50:00;100244.94;;;16.63;nan
77240;BME280;66258;53.170;-2.240;2023-03-19T08:52:27;100242.63;;;16.46;nan
77240;BME280;66258;53.170;-2.240;2023-03-19T08:54:54;100242.22;;;16.56;nan
77240;BME280;66258;53.170;-2.240;2023-03-19T08:57:20;100261.59;;;16.61;nan
77240;BME280;66258;53.170;-2.240;2023-03-19T08:59:47;100256.81;;;16.90;nan
77240;BME280;66258;53.170;-2.240;2023-03-19T09:02:15;100258.06;;;16.87;nan
77240;BME280;66258;53.170;-2.240;2023-03-19T09:04:43;100264.28;;;16.48;nan
77240;BME280;66258;53.170;-2.240;2023-03-19T09:07:10;100260.09;;;16.59;nan
77240;BME280;66258;53.170;-2.240;2023-03-19T09:09:38;100259.97;;;16.80;nan
77240;BME280;66258;53.170;-2.240;2023-03-19T09:12:05;100271.53;;;16.89;nan
77240;BME280;66258;53.170;-2.240;2023-03-19T09:14:33;100277.41;;;16.79;nan
77240;BME280;66258;53.170;-2.240;2023-03-19T09:17:00;100280.59;;;16.82;nan
77240;BME280;66258;53.170;-2.240;2023-03-19T09:19:28;100278.25;;;16.73;nan
77240;BME280;66258;53.170;-2.240;2023-03-19T09:21:55;100284.56;;;16.87;nan
77240;BME280;66258;53.170;-2.240;2023-03-19T09:24:21;100282.66;;;16.87;nan
77240;BME280;66258;53.170;-2.240;2023-03-19T09:26:48;100278.06;;;16.94;nan
77240;BME280;66258;53.170;-2.240;2023-03-19T09:29:15;100277.44;;;17.12;nan
77240;BME280;66258;53.170;-2.240;2023-03-19T09:31:42;100286.88;;;16.83;nan
77240;BME280;66258;53.170;-2.240;2023-03-19T09:34:08;100290.03;;;16.93;nan
77240;BME280;66258;53.170;-2.240;2023-03-19T09:36:36;100298.91;;;17.22;nan
77240;BME280;66258;53.170;-2.240;2023-03-19T09:39:04;100293.22;;;17.36;nan
77240;BME280;66258;53.170;-2.240;2023-03-19T09:41:38;100296.38;;;17.33;nan
77240;BME280;66258;53.170;-2.240;2023-03-19T09:44:12;100293.41;;;17.08;nan
77240;BME280;66258;53.170;-2.240;2023-03-19T09:46:43;100297.84;;;17.03;nan
77240;BME280;66258;53.170;-2.240;2023-03-19T09:49:16;100313.00;;;17.45;nan
77240;BME280;66258;53.170;-2.240;2023-03-19T09:51:51;100317.41;;;17.46;nan
77240;BME280;66258;53.170;-2.240;2023-03-19T09:54:30;100315.53;;;17.40;nan
77240;BME280;66258;53.170;-2.240;2023-03-19T09:56:57;100304.16;;;17.16;nan
77240;BME280;66258;53.170;-2.240;2023-03-19T09:59:26;100301.84;;;17.40;nan
77240;BME280;66258;53.170;-2.240;2023-03-19T10:02:00;100312.56;;;17.48;nan
77240;BME280;66258;53.170;-2.240;2023-03-19T10:04:40;100314.88;;;17.58;nan
77240;BME280;66258;53.170;-2.240;2023-03-19T10:07:19;100324.56;;;17.60;nan
77240;BME280;66258;53.170;-2.240;2023-03-19T10:09:59;100327.53;;;17.72;nan
77240;BME280;66258;53.170;-2.240;2023-03-19T10:12:38;100328.78;;;17.82;nan
77240;BME280;66258;53.170;-2.240;2023-03-19T10:15:16;100336.38;;;17.67;nan
77240;BME280;66258;53.170;-2.240;2023-03-19T10:17:52;100345.66;;;17.66;nan
77240;BME280;66258;53.170;-2.240;2023-03-19T10:20:28;100345.22;;;17.36;nan
77240;BME280;66258;53.170;-2.240;2023-03-19T10:23:01;100344.75;;;17.26;nan
77240;BME280;66258;53.170;-2.240;2023-03-19T10:25:30;100339.53;;;17.18;nan
77240;BME280;66258;53.170;-2.240;2023-03-19T10:28:00;100350.03;;;17.61;nan
77240;BME280;66258;53.170;-2.240;2023-03-19T10:30:33;100355.03;;;18.10;nan
77240;BME280;66258;53.170;-2.240;2023-03-19T10:33:08;100365.81;;;17.92;nan
77240;BME280;66258;53.170;-2.240;2023-03-19T10:35:43;100356.56;;;17.46;nan
77240;BME280;66258;53.170;-2.240;2023-03-19T10:38:22;100353.56;;;16.95;nan
77240;BME280;66258;53.170;-2.240;2023-03-19T10:40:59;100359.44;;;16.79;nan
77240;BME280;66258;53.170;-2.240;2023-03-19T10:43:30;100363.25;;;16.91;nan
77240;BME280;66258;53.170;-2.240;2023-03-19T10:45:57;100363.25;;;16.98;nan
77240;BME280;66258;53.170;-2.240;2023-03-19T10:48:25;100375.16;;;16.70;nan
77240;BME280;66258;53.170;-2.240;2023-03-19T10:50:56;100365.34;;;16.82;nan
77240;BME280;66258;53.170;-2.240;2023-03-19T10:53:30;100379.19;;;16.74;nan
77240;BME280;66258;53.170;-2.240;2023-03-19T10:56:00;100382.00;;;17.07;nan
77240;BME280;66258;53.170;-2.240;2023-03-19T10:58:29;100375.09;;;17.51;nan
77240;BME280;66258;53.170;-2.240;2023-03-19T11:00:58;100373.81;;;17.27;nan
77240;BME280;66258;53.170;-2.240;2023-03-19T11:03:31;100375.94;;;17.38;nan
77240;BME280;66258;53.170;-2.240;2023-03-19T11:06:11;100381.81;;;17.35;nan
77240;BME280;66258;53.170;-2.240;2023-03-19T11:08:49;100380.13;;;17.28;nan
77240;BME280;66258;53.170;-2.240;2023-03-19T11:11:25;100371.75;;;17.42;nan
77240;BME280;66258;53.170;-2.240;2023-03-19T11:13:52;100372.13;;;17.33;nan
77240;BME280;66258;53.170;-2.240;2023-03-19T11:16:19;100377.31;;;16.81;nan
77240;BME280;66258;53.170;-2.240;2023-03-19T11:18:47;100378.88;;;17.24;nan
77240;BME280;66258;53.170;-2.240;2023-03-19T11:21:23;100367.94;;;17.50;nan
77240;BME280;66258;53.170;-2.240;2023-03-19T11:23:58;100374.44;;;17.29;nan
77240;BME280;66258;53.170;-2.240;2023-03-19T11:26:25;100388.97;;;18.09;nan
77240;BME280;66258;53.170;-2.240;2023-03-19T11:28:53;100380.75;;;18.09;nan
77240;BME280;66258;53.170;-2.240;2023-03-19T11:31:25;100373.78;;;18.19;nan
77240;BME280;66258;53.170;-2.240;2023-03-19T11:34:10;100379.97;;;18.66;nan
77240;BME280;66258;53.170;-2.240;2023-03-19T11:36:48;100372.41;;;18.62;nan
77240;BME280;66258;53.170;-2.240;2023-03-19T11:39:26;100367.56;;;18.95;nan
77240;BME280;66258;53.170;-2.240;2023-03-19T11:42:24;100360.00;;;18.46;nan
77240;BME280;66258;53.170;-2.240;2023-03-19T11:45:03;100378.91;;;18.67;nan
77240;BME280;66258;53.170;-2.240;2023-03-19T11:47:40;100377.03;;;18.54;nan
77240;BME280;66258;53.170;-2.240;2023-03-19T11:50:18;100370.69;;;18.54;nan
77240;BME280;66258;53.170;-2.240;2023-03-19T11:53:00;100376.28;;;18.85;nan
77240;BME280;66258;53.170;-2.240;2023-03-19T11:55:33;100372.41;;;19.31;nan
77240;BME280;66258;53.170;-2.240;2023-03-19T11:58:28;100374.81;;;19.21;nan
77240;BME280;66258;53.170;-2.240;2023-03-19T12:01:05;100378.63;;;19.13;nan
77240;BME280;66258;53.170;-2.240;2023-03-19T12:04:00;100377.03;;;19.06;nan
77240;BME280;66258;53.170;-2.240;2023-03-19T12:06:42;100376.34;;;18.72;nan
77240;BME280;66258;53.170;-2.240;2023-03-19T12:09:21;100370.91;;;18.52;nan
77240;BME280;66258;53.170;-2.240;2023-03-19T12:11:57;100375.34;;;18.67;nan
77240;BME280;66258;53.170;-2.240;2023-03-19T12:14:38;100381.09;;;18.45;nan
77240;BME280;66258;53.170;-2.240;2023-03-19T12:17:28;100382.63;;;18.28;nan
77240;BME280;66258;53.170;-2.240;2023-03-19T12:20:16;100375.97;;;18.55;nan
77240;BME280;66258;53.170;-2.240;2023-03-19T12:22:57;100378.41;;;18.83;nan
77240;BME280;66258;53.170;-2.240;2023-03-19T12:25:36;100375.19;;;18.93;nan
77240;BME280;66258;53.170;-2.240;2023-03-19T12:28:14;100382.09;;;19.02;nan
77240;BME280;66258;53.170;-2.240;2023-03-19T12:30:44;100381.31;;;19.27;nan
77240;BME280;66258;53.170;-2.240;2023-03-19T12:33:32;100389.41;;;19.15;nan
77240;BME280;66258;53.170;-2.240;2023-03-19T12:36:07;100388.94;;;18.86;nan
77240;BME280;66258;53.170;-2.240;2023-03-19T12:38:37;100387.81;;;19.01;nan
77240;BME280;66258;53.170;-2.240;2023-03-19T12:41:08;100391.16;;;19.09;nan
77240;BME280;66258;53.170;-2.240;2023-03-19T12:43:43;100381.97;;;19.22;nan
77240;BME280;66258;53.170;-2.240;2023-03-19T12:46:14;100384.81;;;19.09;nan
77240;BME280;66258;53.170;-2.240;2023-03-19T12:48:45;100391.38;;;19.01;nan
77240;BME280;66258;53.170;-2.240;2023-03-19T12:51:19;100387.59;;;19.02;nan
77240;BME280;66258;53.170;-2.240;2023-03-19T12:53:51;100386.44;;;19.16;nan
77240;BME280;66258;53.170;-2.240;2023-03-19T12:56:25;100400.16;;;19.16;nan
77240;BME280;66258;53.170;-2.240;2023-03-19T12:59:00;100393.78;;;19.22;nan
77240;BME280;66258;53.170;-2.240;2023-03-19T13:01:32;100397.72;;;19.02;nan
77240;BME280;66258;53.170;-2.240;2023-03-19T13:04:07;100407.25;;;18.93;nan
77240;BME280;66258;53.170;-2.240;2023-03-19T13:06:40;100401.56;;;18.36;nan
77240;BME280;66258;53.170;-2.240;2023-03-19T13:09:13;100405.22;;;18.04;nan
77240;BME280;66258;53.170;-2.240;2023-03-19T13:11:45;100405.19;;;18.17;nan
77240;BME280;66258;53.170;-2.240;2023-03-19T13:14:21;100405.56;;;18.34;nan
77240;BME280;66258;53.170;-2.240;2023-03-19T13:16:56;100408.19;;;18.73;nan